createdAt,value
2023-05-14T00:00:24.974Z,27.67
2023-05-14T00:01:26.996Z,27.78
2023-05-14T00:02:28.868Z,27.26
2023-05-14T00:03:31.083Z,27.65
2023-05-14T00:04:33.097Z,27.57
2023-05-14T00:05:35.077Z,27.45
2023-05-14T00:06:36.941Z,27.55
2023-05-14T00:07:38.796Z,27.06
2023-05-14T00:08:40.580Z,26.99
2023-05-14T00:09:42.413Z,27.11
2023-05-14T00:10:44.220Z,26.99
2023-05-14T00:11:46.146Z,27.52
2023-05-14T00:12:48.256Z,27.38
2023-05-14T00:13:50.860Z,27.49
2023-05-14T00:14:53.572Z,27.52
2023-05-14T00:15:55.674Z,27.97
2023-05-14T00:16:58.382Z,27.58
2023-05-14T00:18:00.730Z,27.60
2023-05-14T00:19:02.670Z,27.38
2023-05-14T00:20:07.312Z,27.04
2023-05-14T00:21:09.098Z,27.35
2023-05-14T00:22:11.185Z,27.90
2023-05-14T00:23:12.986Z,27.87
2023-05-14T00:24:15.124Z,27.67
2023-05-14T00:25:16.951Z,27.10
2023-05-14T00:26:18.756Z,27.50
2023-05-14T00:27:20.786Z,27.54
2023-05-14T00:28:22.686Z,27.10
2023-05-14T00:29:24.547Z,27.57
2023-05-14T00:30:26.414Z,27.32
2023-05-14T00:31:28.664Z,28.00
2023-05-14T00:32:31.018Z,27.90
2023-05-14T00:33:33.115Z,27.75
2023-05-14T00:34:35.812Z,28.05
2023-05-14T00:35:37.767Z,27.30
2023-05-14T00:36:39.527Z,27.69
2023-05-14T00:37:41.324Z,28.08
2023-05-14T00:38:43.251Z,27.62
2023-05-14T00:39:45.012Z,27.59
2023-05-14T00:40:51.407Z,28.04
2023-05-14T00:41:53.370Z,28.02
2023-05-14T00:42:56.521Z,27.86
2023-05-14T00:43:58.487Z,27.57
2023-05-14T00:45:00.492Z,27.54
2023-05-14T00:46:02.565Z,27.67
2023-05-14T00:47:05.225Z,28.01
2023-05-14T00:48:08.388Z,27.45
2023-05-14T00:49:12.806Z,27.90
2023-05-14T00:50:16.336Z,27.96
2023-05-14T00:51:19.186Z,28.13
2023-05-14T00:52:22.113Z,27.90
2023-05-14T00:53:23.961Z,27.77
2023-05-14T00:54:26.956Z,27.65
2023-05-14T00:55:30.918Z,27.95
2023-05-14T00:56:33.471Z,28.28
2023-05-14T00:57:36.561Z,28.22
2023-05-14T00:58:38.369Z,28.16
2023-05-14T00:59:41.888Z,27.59
2023-05-14T01:00:43.756Z,27.77
2023-05-14T01:01:45.665Z,27.94
2023-05-14T01:02:47.688Z,27.89
2023-05-14T01:03:49.882Z,27.54
2023-05-14T01:04:52.276Z,27.58
2023-05-14T01:06:07.078Z,28.31
2023-05-14T01:07:14.914Z,28.13
2023-05-14T01:08:34.591Z,27.97
2023-05-14T01:09:54.854Z,28.19
2023-05-14T01:11:04.062Z,27.44
2023-05-14T01:12:14.461Z,27.77
2023-05-14T01:13:38.793Z,27.83
2023-05-14T01:15:18.297Z,28.00
2023-05-14T01:16:21.873Z,27.58
2023-05-14T01:17:28.371Z,28.12
2023-05-14T01:18:32.658Z,27.59
2023-05-14T01:19:40.961Z,28.02
2023-05-14T01:20:43.502Z,28.16
2023-05-14T01:21:45.271Z,28.20
2023-05-14T01:22:47.246Z,28.25
2023-05-14T01:23:49.069Z,27.75
2023-05-14T01:24:50.996Z,27.97
2023-05-14T01:25:52.810Z,28.13
2023-05-14T01:27:01.552Z,28.01
2023-05-14T01:28:13.278Z,28.29
2023-05-14T01:29:23.064Z,27.50
2023-05-14T01:30:29.878Z,27.50
2023-05-14T01:31:33.495Z,27.58
2023-05-14T01:32:37.181Z,28.29
2023-05-14T01:33:42.721Z,28.25
2023-05-14T01:34:47.454Z,28.09
2023-05-14T01:35:49.997Z,28.29
2023-05-14T01:36:53.509Z,28.08
2023-05-14T01:38:01.630Z,28.12
2023-05-14T01:39:03.879Z,27.82
2023-05-14T01:40:09.766Z,27.78
2023-05-14T01:41:14.570Z,27.68
2023-05-14T01:42:16.452Z,28.24
2023-05-14T01:43:19.585Z,27.97
2023-05-14T01:44:21.868Z,28.30
2023-05-14T01:45:24.276Z,27.75
2023-05-14T01:46:26.278Z,27.82
2023-05-14T01:47:28.571Z,28.16
2023-05-14T01:48:30.468Z,28.38
2023-05-14T01:49:32.647Z,27.85
2023-05-14T01:50:34.627Z,28.24
2023-05-14T01:51:36.680Z,28.32
2023-05-14T01:52:38.567Z,28.01
2023-05-14T01:53:40.880Z,27.75
2023-05-14T01:54:42.712Z,28.37
2023-05-14T01:55:44.526Z,27.95
2023-05-14T01:56:46.335Z,28.35
2023-05-14T01:57:48.142Z,27.92
2023-05-14T01:58:50.138Z,27.86
2023-05-14T01:59:52.022Z,28.42
2023-05-14T02:00:53.892Z,28.51
2023-05-14T02:01:56.237Z,28.16
2023-05-14T02:02:58.145Z,28.06
2023-05-14T02:04:01.200Z,28.47
2023-05-14T02:05:04.341Z,28.17
2023-05-14T02:06:08.139Z,27.83
2023-05-14T02:07:09.956Z,27.78
2023-05-14T02:08:11.785Z,28.52
2023-05-14T02:09:13.653Z,28.45
2023-05-14T02:10:15.733Z,27.92
2023-05-14T02:11:17.537Z,28.31
2023-05-14T02:12:19.421Z,27.68
2023-05-14T02:13:21.289Z,28.51
2023-05-14T02:14:23.444Z,28.47
2023-05-14T02:15:25.455Z,28.22
2023-05-14T02:16:27.337Z,27.84
2023-05-14T02:17:29.461Z,27.66
2023-05-14T02:18:31.347Z,28.07
2023-05-14T02:19:33.169Z,27.90
2023-05-14T02:20:34.953Z,28.39
2023-05-14T02:21:36.729Z,28.40
2023-05-14T02:22:38.710Z,28.47
2023-05-14T02:23:42.134Z,28.33
2023-05-14T02:24:44.491Z,27.62
2023-05-14T02:25:46.557Z,27.90
2023-05-14T02:26:48.409Z,28.08
2023-05-14T02:27:50.724Z,28.43
2023-05-14T02:28:52.527Z,27.84
2023-05-14T02:29:54.398Z,27.78
2023-05-14T02:31:01.235Z,28.28
2023-05-14T02:32:03.314Z,27.72
2023-05-14T02:33:05.331Z,27.58
2023-05-14T02:34:07.427Z,28.39
2023-05-14T02:35:09.794Z,27.88
2023-05-14T02:36:12.397Z,27.97
2023-05-14T02:37:14.247Z,28.13
2023-05-14T02:38:16.039Z,27.70
2023-05-14T02:39:17.870Z,28.07
2023-05-14T02:40:20.833Z,27.94
2023-05-14T02:41:22.649Z,27.63
2023-05-14T02:42:24.469Z,27.90
2023-05-14T02:43:26.795Z,28.02
2023-05-14T02:44:28.715Z,27.91
2023-05-14T02:45:30.499Z,27.68
2023-05-14T02:46:32.495Z,28.19
2023-05-14T02:47:37.578Z,28.33
2023-05-14T02:48:39.827Z,27.74
2023-05-14T02:49:41.601Z,27.71
2023-05-14T02:50:43.484Z,28.30
2023-05-14T02:51:45.278Z,28.13
2023-05-14T02:52:47.078Z,27.99
2023-05-14T02:53:49.103Z,27.96
2023-05-14T02:54:50.879Z,27.58
2023-05-14T02:55:52.633Z,27.77
2023-05-14T02:56:54.527Z,28.21
2023-05-14T02:57:56.912Z,28.45
2023-05-14T02:58:58.739Z,27.67
2023-05-14T03:00:00.955Z,28.22
2023-05-14T03:01:03.720Z,28.16
2023-05-14T03:02:06.317Z,27.56
2023-05-14T03:03:08.657Z,28.20
2023-05-14T03:04:10.863Z,28.34
2023-05-14T03:05:12.664Z,27.52
2023-05-14T03:06:14.541Z,28.39
2023-05-14T03:07:16.640Z,27.93
2023-05-14T03:08:18.609Z,28.15
2023-05-14T03:09:20.737Z,28.09
2023-05-14T03:10:22.969Z,27.77
2023-05-14T03:11:25.507Z,28.12
2023-05-14T03:12:27.472Z,28.45
2023-05-14T03:13:29.283Z,27.67
2023-05-14T03:14:31.048Z,27.78
2023-05-14T03:15:33.031Z,28.04
2023-05-14T03:16:34.871Z,27.79
2023-05-14T03:17:36.721Z,27.92
2023-05-14T03:18:38.584Z,27.85
2023-05-14T03:19:40.490Z,28.18
2023-05-14T03:20:42.577Z,27.88
2023-05-14T03:21:44.504Z,28.39
2023-05-14T03:22:46.525Z,28.49
2023-05-14T03:23:49.229Z,27.78
2023-05-14T03:24:53.767Z,27.82
2023-05-14T03:25:55.709Z,28.04
2023-05-14T03:26:59.538Z,28.04
2023-05-14T03:28:01.388Z,27.74
2023-05-14T03:29:03.996Z,27.72
2023-05-14T03:30:06.510Z,28.26
2023-05-14T03:31:08.555Z,28.55
2023-05-14T03:32:12.057Z,27.92
2023-05-14T03:33:13.965Z,28.08
2023-05-14T03:34:15.954Z,27.65
2023-05-14T03:35:17.972Z,28.32
2023-05-14T03:36:20.166Z,28.22
2023-05-14T03:37:23.178Z,28.00
2023-05-14T03:38:24.960Z,28.20
2023-05-14T03:39:26.784Z,28.34
2023-05-14T03:40:28.607Z,28.08
2023-05-14T03:41:30.458Z,28.03
2023-05-14T03:42:32.232Z,27.91
2023-05-14T03:43:34.054Z,28.44
2023-05-14T03:44:36.167Z,28.07
2023-05-14T03:45:39.120Z,28.22
2023-05-14T03:46:40.947Z,28.60
2023-05-14T03:47:42.817Z,28.37
2023-05-14T03:48:44.851Z,28.33
2023-05-14T03:49:47.729Z,28.30
2023-05-14T03:50:50.128Z,28.52
2023-05-14T03:51:52.210Z,28.58
2023-05-14T03:52:55.054Z,27.94
2023-05-14T03:53:58.074Z,28.57
2023-05-14T03:54:59.909Z,28.48
2023-05-14T03:56:01.775Z,28.30
2023-05-14T03:57:03.808Z,28.05
2023-05-14T03:58:14.469Z,28.02
2023-05-14T03:59:16.559Z,28.21
2023-05-14T04:00:18.647Z,28.63
2023-05-14T04:01:20.348Z,28.17
2023-05-14T04:02:22.238Z,28.45
2023-05-14T04:03:24.260Z,28.28
2023-05-14T04:04:26.389Z,27.95
2023-05-14T04:05:28.233Z,28.70
2023-05-14T04:06:31.178Z,28.31
2023-05-14T04:07:32.961Z,28.01
2023-05-14T04:08:34.753Z,28.65
2023-05-14T04:09:36.687Z,28.12
2023-05-14T04:10:38.539Z,28.20
2023-05-14T04:11:40.356Z,28.64
2023-05-14T04:12:42.931Z,28.69
2023-05-14T04:13:44.942Z,28.74
2023-05-14T04:14:46.872Z,28.43
2023-05-14T04:15:48.774Z,28.41
2023-05-14T04:16:50.567Z,28.74
2023-05-14T04:17:52.404Z,28.12
2023-05-14T04:18:54.368Z,29.01
2023-05-14T04:19:56.230Z,28.50
2023-05-14T04:20:59.311Z,28.31
2023-05-14T04:22:01.066Z,28.49
2023-05-14T04:23:02.853Z,28.16
2023-05-14T04:24:05.002Z,28.96
2023-05-14T04:25:07.206Z,28.89
2023-05-14T04:26:09.071Z,28.95
2023-05-14T04:27:10.903Z,28.90
2023-05-14T04:28:12.712Z,28.53
2023-05-14T04:29:14.610Z,28.93
2023-05-14T04:30:16.457Z,28.95
2023-05-14T04:31:18.426Z,29.17
2023-05-14T04:32:20.504Z,29.07
2023-05-14T04:33:22.336Z,29.16
2023-05-14T04:34:24.310Z,28.76
2023-05-14T04:35:26.112Z,28.92
2023-05-14T04:36:27.936Z,28.84
2023-05-14T04:37:29.851Z,28.33
2023-05-14T04:38:32.146Z,29.18
2023-05-14T04:39:33.932Z,29.13
2023-05-14T04:40:35.765Z,29.02
2023-05-14T04:41:37.801Z,28.93
2023-05-14T04:42:39.625Z,29.41
2023-05-14T04:43:41.394Z,29.28
2023-05-14T04:44:43.218Z,28.69
2023-05-14T04:45:45.164Z,28.98
2023-05-14T04:46:47.219Z,28.83
2023-05-14T04:47:49.384Z,28.37
2023-05-14T04:48:51.891Z,28.94
2023-05-14T04:49:53.659Z,28.47
2023-05-14T04:50:55.488Z,28.58
2023-05-14T04:51:57.352Z,28.40
2023-05-14T04:52:59.116Z,28.52
2023-05-14T04:54:00.903Z,28.80
2023-05-14T04:55:02.791Z,28.78
2023-05-14T04:56:04.598Z,28.58
2023-05-14T04:57:06.382Z,28.64
2023-05-14T04:58:08.258Z,29.02
2023-05-14T04:59:10.041Z,28.80
2023-05-14T05:00:13.264Z,28.50
2023-05-14T05:01:15.378Z,28.56
2023-05-14T05:02:17.311Z,29.08
2023-05-14T05:03:19.208Z,28.63
2023-05-14T05:04:21.141Z,29.12
2023-05-14T05:05:24.299Z,28.87
2023-05-14T05:06:26.145Z,28.93
2023-05-14T05:07:27.925Z,28.55
2023-05-14T05:08:29.685Z,29.24
2023-05-14T05:09:31.853Z,29.37
2023-05-14T05:10:33.725Z,29.36
2023-05-14T05:11:35.580Z,28.63
2023-05-14T05:12:37.412Z,29.07
2023-05-14T05:13:39.148Z,29.44
2023-05-14T05:14:40.918Z,29.16
2023-05-14T05:15:44.047Z,28.98
2023-05-14T05:16:46.187Z,29.41
2023-05-14T05:17:48.226Z,29.15
2023-05-14T05:18:50.160Z,29.20
2023-05-14T05:19:52.698Z,29.47
2023-05-14T05:20:54.549Z,28.87
2023-05-14T05:21:56.453Z,29.47
2023-05-14T05:22:58.327Z,28.86
2023-05-14T05:24:00.073Z,29.10
2023-05-14T05:25:02.014Z,29.17
2023-05-14T05:26:04.023Z,29.55
2023-05-14T05:27:06.179Z,29.33
2023-05-14T05:28:07.979Z,29.52
2023-05-14T05:29:09.826Z,28.68
2023-05-14T05:30:12.154Z,29.55
2023-05-14T05:31:14.118Z,28.84
2023-05-14T05:32:16.115Z,29.24
2023-05-14T05:33:17.914Z,29.09
2023-05-14T05:34:20.835Z,29.56
2023-05-14T05:35:22.615Z,28.84
2023-05-14T05:36:24.544Z,28.72
2023-05-14T05:37:26.308Z,29.66
2023-05-14T05:38:28.092Z,28.70
2023-05-14T05:39:34.998Z,29.56
2023-05-14T05:40:37.097Z,28.82
2023-05-14T05:41:39.228Z,29.38
2023-05-14T05:42:41.659Z,29.47
2023-05-14T05:43:43.542Z,28.97
2023-05-14T05:44:45.340Z,28.65
2023-05-14T05:45:47.130Z,28.91
2023-05-14T05:46:49.071Z,28.89
2023-05-14T05:47:50.959Z,28.88
2023-05-14T05:48:53.350Z,28.97
2023-05-14T05:49:55.136Z,28.92
2023-05-14T05:50:56.994Z,29.02
2023-05-14T05:51:58.763Z,28.90
2023-05-14T05:53:00.603Z,29.14
2023-05-14T05:54:02.431Z,28.35
2023-05-14T05:55:04.532Z,28.59
2023-05-14T05:56:06.882Z,29.01
2023-05-14T05:57:08.743Z,29.00
2023-05-14T05:58:10.839Z,28.85
2023-05-14T05:59:12.703Z,29.22
2023-05-14T06:00:15.280Z,28.97
2023-05-14T06:01:17.078Z,28.81
2023-05-14T06:02:19.960Z,28.25
2023-05-14T06:03:22.326Z,28.77
2023-05-14T06:04:24.134Z,28.59
2023-05-14T06:05:26.103Z,28.97
2023-05-14T06:06:28.991Z,28.41
2023-05-14T06:07:30.991Z,28.16
2023-05-14T06:08:32.965Z,28.46
2023-05-14T06:09:34.732Z,28.68
2023-05-14T06:10:37.549Z,28.18
2023-05-14T06:11:39.407Z,28.88
2023-05-14T06:12:41.289Z,28.96
2023-05-14T06:13:43.083Z,28.54
2023-05-14T06:14:44.877Z,28.35
2023-05-14T06:15:46.701Z,28.86
2023-05-14T06:16:48.494Z,28.05
2023-05-14T06:17:50.464Z,28.62
2023-05-14T06:18:56.041Z,27.97
2023-05-14T06:19:57.929Z,28.54
2023-05-14T06:21:00.388Z,27.79
2023-05-14T06:22:02.894Z,28.07
2023-05-14T06:23:04.666Z,28.00
2023-05-14T06:24:06.902Z,27.79
2023-05-14T06:25:09.206Z,27.93
2023-05-14T06:26:10.998Z,28.09
2023-05-14T06:27:12.841Z,28.19
2023-05-14T06:28:14.650Z,27.85
2023-05-14T06:29:16.553Z,27.92
2023-05-14T06:30:18.410Z,28.34
2023-05-14T06:31:20.252Z,28.12
2023-05-14T06:32:22.210Z,27.90
2023-05-14T06:33:30.781Z,28.21
2023-05-14T06:34:32.947Z,27.37
2023-05-14T06:35:34.750Z,28.10
2023-05-14T06:36:36.500Z,27.77
2023-05-14T06:37:38.292Z,27.33
2023-05-14T06:38:40.061Z,27.95
2023-05-14T06:39:48.251Z,28.07
2023-05-14T06:40:50.024Z,27.96
2023-05-14T06:41:51.791Z,27.43
2023-05-14T06:42:53.598Z,27.48
2023-05-14T06:43:55.424Z,27.23
2023-05-14T06:44:57.272Z,27.16
2023-05-14T06:45:59.176Z,27.33
2023-05-14T06:47:01.045Z,27.77
2023-05-14T06:48:02.945Z,27.56
2023-05-14T06:49:05.364Z,27.07
2023-05-14T06:50:09.454Z,27.67
2023-05-14T06:51:13.347Z,27.36
2023-05-14T06:52:15.106Z,27.84
2023-05-14T06:53:17.156Z,27.43
2023-05-14T06:54:20.533Z,27.41
2023-05-14T06:55:22.502Z,27.06
2023-05-14T06:56:24.377Z,27.22
2023-05-14T06:57:26.703Z,27.21
2023-05-14T06:58:28.518Z,27.63
2023-05-14T06:59:30.600Z,27.40
2023-05-14T07:00:32.456Z,26.79
2023-05-14T07:01:34.264Z,26.58
2023-05-14T07:02:36.259Z,26.58
2023-05-14T07:03:38.243Z,27.00
2023-05-14T07:04:40.167Z,26.44
2023-05-14T07:05:42.237Z,26.33
2023-05-14T07:06:43.974Z,26.94
2023-05-14T07:07:45.813Z,26.16
2023-05-14T07:08:47.667Z,26.79
2023-05-14T07:09:49.469Z,26.52
2023-05-14T07:10:51.352Z,26.71
2023-05-14T07:11:53.202Z,26.43
2023-05-14T07:12:55.072Z,26.21
2023-05-14T07:13:56.910Z,25.50
2023-05-14T07:14:58.673Z,25.56
2023-05-14T07:16:00.537Z,25.85
2023-05-14T07:17:02.493Z,25.52
2023-05-14T07:18:04.583Z,25.29
2023-05-14T07:19:06.420Z,25.20
2023-05-14T07:20:08.722Z,25.86
2023-05-14T07:21:10.545Z,25.18
2023-05-14T07:22:12.284Z,24.90
2023-05-14T07:23:14.077Z,25.38
2023-05-14T07:24:15.857Z,25.41
2023-05-14T07:25:17.688Z,25.52
2023-05-14T07:26:19.476Z,25.26
2023-05-14T07:27:21.297Z,24.82
2023-05-14T07:28:23.054Z,25.37
2023-05-14T07:29:25.613Z,25.37
2023-05-14T07:30:27.683Z,25.35
2023-05-14T07:31:29.623Z,25.13
2023-05-14T07:32:31.722Z,25.11
2023-05-14T07:33:33.608Z,24.95
2023-05-14T07:34:35.547Z,24.71
2023-05-14T07:35:37.354Z,25.19
2023-05-14T07:36:39.351Z,24.48
2023-05-14T07:37:41.412Z,24.79
2023-05-14T07:38:43.329Z,25.10
2023-05-14T07:39:45.208Z,25.02
2023-05-14T07:40:47.254Z,24.76
2023-05-14T07:41:50.188Z,24.88
2023-05-14T07:42:52.013Z,25.25
2023-05-14T07:43:53.795Z,24.47
2023-05-14T07:44:55.607Z,24.50
2023-05-14T07:45:57.392Z,24.63
2023-05-14T07:46:59.176Z,25.08
2023-05-14T07:48:01.191Z,24.92
2023-05-14T07:49:03.480Z,24.68
2023-05-14T07:50:05.903Z,24.35
2023-05-14T07:51:07.641Z,25.23
2023-05-14T07:52:09.405Z,24.60
2023-05-14T07:53:11.388Z,24.92
2023-05-14T07:54:13.243Z,25.06
2023-05-14T07:55:15.177Z,24.78
2023-05-14T07:56:17.008Z,24.92
2023-05-14T07:57:19.654Z,24.57
2023-05-14T07:58:21.463Z,24.78
2023-05-14T07:59:23.391Z,25.16
2023-05-14T08:00:25.371Z,24.63
2023-05-14T08:01:27.699Z,25.29
2023-05-14T08:02:29.699Z,24.81
2023-05-14T08:03:31.656Z,24.65
2023-05-14T08:04:33.835Z,25.08
2023-05-14T08:05:35.804Z,25.42
2023-05-14T08:06:38.097Z,24.87
2023-05-14T08:07:39.937Z,24.67
2023-05-14T08:08:41.994Z,25.14
2023-05-14T08:09:43.735Z,24.99
2023-05-14T08:10:45.631Z,25.56
2023-05-14T08:11:47.506Z,25.21
2023-05-14T08:12:49.307Z,24.72
2023-05-14T08:13:51.117Z,25.39
2023-05-14T08:14:53.259Z,25.39
2023-05-14T08:15:55.573Z,25.40
2023-05-14T08:16:57.512Z,25.41
2023-05-14T08:18:03.578Z,24.89
2023-05-14T08:19:05.721Z,25.33
2023-05-14T08:20:08.333Z,24.78
2023-05-14T08:21:10.094Z,24.69
2023-05-14T08:22:11.990Z,24.63
2023-05-14T08:23:14.008Z,24.62
2023-05-14T08:24:15.911Z,24.91
2023-05-14T08:25:17.735Z,24.72
2023-05-14T08:26:19.518Z,24.80
2023-05-14T08:27:21.656Z,25.01
2023-05-14T08:28:23.490Z,25.38
2023-05-14T08:29:25.984Z,24.78
2023-05-14T08:30:28.621Z,24.84
2023-05-14T08:31:30.643Z,24.79
2023-05-14T08:32:32.518Z,25.49
2023-05-14T08:33:34.348Z,25.57
2023-05-14T08:34:36.098Z,25.49
2023-05-14T08:35:37.940Z,25.12
2023-05-14T08:36:39.719Z,24.73
2023-05-14T08:37:41.484Z,25.38
2023-05-14T08:38:44.222Z,25.62
2023-05-14T08:39:46.269Z,25.52
2023-05-14T08:40:58.540Z,25.13
2023-05-14T08:42:00.738Z,24.94
2023-05-14T08:43:02.785Z,24.93
2023-05-14T08:44:18.306Z,25.09
2023-05-14T08:45:25.764Z,25.34
2023-05-14T08:46:31.168Z,24.83
2023-05-14T08:47:34.006Z,24.79
2023-05-14T08:48:37.815Z,24.95
2023-05-14T08:49:44.502Z,24.63
2023-05-14T08:50:46.455Z,24.72
2023-05-14T08:51:48.608Z,24.91
2023-05-14T08:52:51.231Z,25.41
2023-05-14T08:53:53.164Z,25.26
2023-05-14T08:54:56.656Z,25.08
2023-05-14T08:56:01.226Z,25.31
2023-05-14T08:57:09.291Z,25.36
2023-05-14T08:58:11.269Z,24.85
2023-05-14T08:59:13.958Z,25.09
2023-05-14T09:00:16.035Z,24.65
2023-05-14T09:01:19.085Z,24.98
2023-05-14T09:02:24.493Z,25.18
2023-05-14T09:03:27.104Z,24.95
2023-05-14T09:04:29.755Z,25.29
2023-05-14T09:05:33.407Z,25.39
2023-05-14T09:06:37.843Z,25.20
2023-05-14T09:07:39.618Z,25.49
2023-05-14T09:08:41.594Z,24.92
2023-05-14T09:09:45.122Z,25.04
2023-05-14T09:10:46.888Z,25.21
2023-05-14T09:11:52.990Z,25.05
2023-05-14T09:12:54.906Z,24.75
2023-05-14T09:13:56.929Z,24.85
2023-05-14T09:14:58.708Z,25.29
2023-05-14T09:16:01.263Z,25.39
2023-05-14T09:17:03.550Z,25.08
2023-05-14T09:18:06.451Z,24.94
2023-05-14T09:19:08.662Z,24.69
2023-05-14T09:20:13.082Z,24.92
2023-05-14T09:21:15.916Z,25.37
2023-05-14T09:22:18.241Z,25.28
2023-05-14T09:23:20.071Z,24.86
2023-05-14T09:24:24.003Z,25.78
2023-05-14T09:25:32.492Z,24.76
2023-05-14T09:26:35.647Z,25.55
2023-05-14T09:27:38.237Z,24.81
2023-05-14T09:28:44.282Z,25.09
2023-05-14T09:29:46.232Z,25.05
2023-05-14T09:30:52.256Z,25.25
2023-05-14T09:31:55.808Z,25.50
2023-05-14T09:32:57.683Z,24.94
2023-05-14T09:34:00.669Z,25.63
2023-05-14T09:35:14.670Z,24.92
2023-05-14T09:36:17.723Z,25.03
2023-05-14T09:37:19.538Z,25.07
2023-05-14T09:38:23.665Z,25.14
2023-05-14T09:39:26.631Z,25.59
2023-05-14T09:40:29.066Z,24.85
2023-05-14T09:41:31.173Z,25.20
2023-05-14T09:42:33.019Z,25.37
2023-05-14T09:43:34.830Z,25.12
2023-05-14T09:44:38.131Z,25.01
2023-05-14T09:45:40.920Z,24.96
2023-05-14T09:46:42.710Z,25.20
2023-05-14T09:47:45.458Z,24.83
2023-05-14T09:48:47.440Z,25.70
2023-05-14T09:49:49.898Z,25.49
2023-05-14T09:50:52.362Z,25.31
2023-05-14T09:51:54.149Z,25.69
2023-05-14T09:52:56.241Z,25.51
2023-05-14T09:53:58.615Z,25.77
2023-05-14T09:55:01.426Z,25.02
2023-05-14T09:56:03.514Z,25.54
2023-05-14T09:57:05.937Z,25.78
2023-05-14T09:58:07.680Z,25.55
2023-05-14T09:59:09.539Z,25.70
2023-05-14T10:00:12.796Z,25.44
2023-05-14T10:01:18.666Z,25.41
2023-05-14T10:02:31.269Z,25.43
2023-05-14T10:03:33.267Z,25.39
2023-05-14T10:04:35.974Z,25.39
2023-05-14T10:05:41.090Z,25.78
2023-05-14T10:06:48.326Z,25.35
2023-05-14T10:07:53.475Z,25.61
2023-05-14T10:08:57.071Z,25.73
2023-05-14T10:10:02.303Z,25.92
2023-05-14T10:11:08.554Z,25.45
2023-05-14T10:12:10.409Z,25.33
2023-05-14T10:13:15.142Z,25.54
2023-05-14T10:14:53.763Z,26.00
2023-05-14T10:16:06.835Z,25.86
2023-05-14T10:17:18.341Z,25.84
2023-05-14T10:18:24.220Z,25.17
2023-05-14T10:19:26.886Z,25.53
2023-05-14T10:20:29.507Z,25.59
2023-05-14T10:21:33.317Z,25.72
2023-05-14T10:22:35.672Z,25.89
2023-05-14T10:23:39.094Z,25.78
2023-05-14T10:24:41.571Z,25.85
2023-05-14T10:25:43.905Z,25.16
2023-05-14T10:26:45.882Z,25.02
2023-05-14T10:27:48.009Z,25.11
2023-05-14T10:28:49.969Z,25.39
2023-05-14T10:29:56.893Z,25.60
2023-05-14T10:31:00.772Z,25.17
2023-05-14T10:32:08.148Z,25.52
2023-05-14T10:33:14.403Z,25.30
2023-05-14T10:34:33.597Z,24.75
2023-05-14T10:36:00.143Z,24.78
2023-05-14T10:37:03.976Z,25.15
2023-05-14T10:38:08.933Z,24.85
2023-05-14T10:39:10.712Z,25.28
2023-05-14T10:40:14.038Z,25.26
2023-05-14T10:41:18.037Z,24.89
2023-05-14T10:42:28.973Z,24.75
2023-05-14T10:43:31.768Z,24.81
2023-05-14T10:44:35.888Z,25.13
2023-05-14T10:45:37.755Z,25.27
2023-05-14T10:46:40.140Z,25.02
2023-05-14T10:47:47.097Z,24.79
2023-05-14T10:48:49.936Z,24.50
2023-05-14T10:49:58.078Z,24.95
2023-05-14T10:51:02.394Z,24.76
2023-05-14T10:52:04.497Z,25.00
2023-05-14T10:53:11.400Z,25.35
2023-05-14T10:54:13.207Z,25.26
2023-05-14T10:55:16.855Z,25.18
2023-05-14T10:56:18.987Z,25.06
2023-05-14T10:57:22.734Z,24.57
2023-05-14T10:58:24.499Z,25.27
2023-05-14T10:59:29.509Z,25.27
2023-05-14T11:00:34.451Z,24.70
2023-05-14T11:01:36.472Z,25.06
2023-05-14T11:02:40.435Z,25.06
2023-05-14T11:03:46.986Z,24.56
2023-05-14T11:05:06.350Z,25.01
2023-05-14T11:06:09.381Z,24.91
2023-05-14T11:07:11.486Z,24.77
2023-05-14T11:08:14.318Z,24.52
2023-05-14T11:09:17.779Z,24.76
2023-05-14T11:10:22.146Z,24.89
2023-05-14T11:11:26.109Z,24.69
2023-05-14T11:12:29.164Z,25.11
2023-05-14T11:13:31.319Z,25.30
2023-05-14T11:14:33.215Z,24.94
2023-05-14T11:15:35.137Z,24.85
2023-05-14T11:16:37.830Z,25.17
2023-05-14T11:17:41.413Z,24.79
2023-05-14T11:18:43.271Z,24.66
2023-05-14T11:19:45.973Z,24.60
2023-05-14T11:20:47.900Z,24.90
2023-05-14T11:21:49.744Z,25.39
2023-05-14T11:22:51.930Z,25.27
2023-05-14T11:23:55.557Z,25.01
2023-05-14T11:24:57.718Z,25.12
2023-05-14T11:25:59.640Z,24.91
2023-05-14T11:27:01.451Z,24.52
2023-05-14T11:28:03.332Z,24.53
2023-05-14T11:29:05.293Z,24.51
2023-05-14T11:30:18.020Z,24.46
2023-05-14T11:31:21.617Z,24.70
2023-05-14T11:32:23.999Z,24.50
2023-05-14T11:33:27.843Z,25.24
2023-05-14T11:34:29.808Z,25.01
2023-05-14T11:35:31.915Z,25.01
2023-05-14T11:36:36.253Z,25.12
2023-05-14T11:37:38.144Z,24.71
2023-05-14T11:38:48.882Z,24.87
2023-05-14T11:39:53.960Z,24.34
2023-05-14T11:40:57.042Z,24.90
2023-05-14T11:42:02.316Z,24.87
2023-05-14T11:43:04.212Z,24.76
2023-05-14T11:44:07.281Z,24.54
2023-05-14T11:45:12.663Z,24.77
2023-05-14T11:46:22.461Z,25.02
2023-05-14T11:47:24.412Z,24.49
2023-05-14T11:48:26.229Z,24.62
2023-05-14T11:49:32.428Z,24.90
2023-05-14T11:50:36.571Z,24.47
2023-05-14T11:51:38.418Z,24.71
2023-05-14T11:52:41.514Z,24.90
2023-05-14T11:53:43.369Z,24.83
2023-05-14T11:54:45.572Z,24.90
2023-05-14T11:55:47.700Z,24.87
2023-05-14T11:56:51.453Z,24.79
2023-05-14T11:57:53.926Z,24.48
2023-05-14T11:58:58.154Z,24.79
2023-05-14T11:59:59.992Z,24.33
2023-05-14T12:01:01.789Z,24.99
2023-05-14T12:02:07.710Z,24.37
2023-05-14T12:03:10.210Z,24.28
2023-05-14T12:04:13.350Z,24.51
2023-05-14T12:05:15.276Z,24.46
2023-05-14T12:06:18.436Z,24.76
2023-05-14T12:07:20.424Z,24.61
2023-05-14T12:08:26.022Z,25.02
2023-05-14T12:09:28.351Z,24.47
2023-05-14T12:10:30.154Z,24.87
2023-05-14T12:11:32.962Z,24.32
2023-05-14T12:12:37.224Z,24.79
2023-05-14T12:13:39.777Z,24.73
2023-05-14T12:14:43.378Z,25.03
2023-05-14T12:15:54.392Z,24.34
2023-05-14T12:16:56.369Z,24.48
2023-05-14T12:17:58.181Z,25.02
2023-05-14T12:19:01.822Z,24.85
2023-05-14T12:20:04.311Z,24.48
2023-05-14T12:21:08.522Z,24.25
2023-05-14T12:22:11.517Z,24.52
2023-05-14T12:23:13.608Z,24.26
2023-05-14T12:24:20.081Z,24.33
2023-05-14T12:25:21.837Z,24.18
2023-05-14T12:26:23.661Z,24.44
2023-05-14T12:27:29.756Z,24.98
2023-05-14T12:28:32.003Z,24.63
2023-05-14T12:29:38.943Z,24.98
2023-05-14T12:30:41.369Z,24.92
2023-05-14T12:31:47.724Z,24.93
2023-05-14T12:32:51.963Z,24.52
2023-05-14T12:33:53.992Z,24.50
2023-05-14T12:34:55.744Z,25.03
2023-05-14T12:36:09.959Z,24.64
2023-05-14T12:37:21.952Z,24.28
2023-05-14T12:38:23.696Z,24.31
2023-05-14T12:39:25.614Z,24.85
2023-05-14T12:40:27.438Z,24.97
2023-05-14T12:41:31.294Z,25.00
2023-05-14T12:42:33.188Z,24.14
2023-05-14T12:43:34.963Z,24.50
2023-05-14T12:44:36.725Z,24.31
2023-05-14T12:45:38.538Z,24.31
2023-05-14T12:46:40.356Z,24.08
2023-05-14T12:47:42.194Z,24.22
2023-05-14T12:48:44.035Z,24.69
2023-05-14T12:49:45.940Z,24.49
2023-05-14T12:50:48.832Z,24.57
2023-05-14T12:51:56.769Z,24.38
2023-05-14T12:53:05.721Z,24.62
2023-05-14T12:54:07.499Z,24.81
2023-05-14T12:55:09.837Z,24.19
2023-05-14T12:56:12.362Z,24.68
2023-05-14T12:57:14.185Z,24.45
2023-05-14T12:58:16.102Z,24.38
2023-05-14T12:59:18.067Z,24.30
2023-05-14T13:00:20.091Z,24.19
2023-05-14T13:01:22.174Z,24.24
2023-05-14T13:02:24.015Z,24.64
2023-05-14T13:03:26.397Z,24.92
2023-05-14T13:04:28.320Z,24.75
2023-05-14T13:05:30.157Z,24.21
2023-05-14T13:06:32.427Z,24.34
2023-05-14T13:07:34.275Z,24.84
2023-05-14T13:08:36.044Z,24.67
2023-05-14T13:09:37.934Z,24.80
2023-05-14T13:10:39.748Z,24.31
2023-05-14T13:11:41.555Z,25.06
2023-05-14T13:12:43.397Z,24.76
2023-05-14T13:13:45.370Z,25.16
2023-05-14T13:14:47.154Z,24.67
2023-05-14T13:15:49.196Z,24.88
2023-05-14T13:16:51.243Z,24.98
2023-05-14T13:17:53.121Z,24.99
2023-05-14T13:18:55.473Z,24.25
2023-05-14T13:19:57.369Z,25.10
2023-05-14T13:20:59.164Z,25.17
2023-05-14T13:22:00.919Z,24.70
2023-05-14T13:23:02.791Z,24.26
2023-05-14T13:24:04.758Z,24.73
2023-05-14T13:25:07.540Z,25.08
2023-05-14T13:26:09.827Z,25.08
2023-05-14T13:27:11.785Z,24.98
2023-05-14T13:28:13.621Z,24.48
2023-05-14T13:29:15.471Z,24.46
2023-05-14T13:30:18.327Z,24.83
2023-05-14T13:31:20.242Z,24.95